Time;durP1;ratioP1;P1;durP2;ratioP2;P2;SDS_P1;SDS_P2;PMS_P1;PMS_P2;Temp;Humidity;BMP_temperature;BMP_pressure;BME280_temperature;BME280_humidity;BME280_pressure;Samples;Min_cycle;Max_cycle;Signal;HPM_P1;HPM_P2
2023/04/09 00:02:20;;;;;;;92.20;48.90;;;;;;;;;;6176332;28;20037;-83
2023/04/09 00:05:21;;;;;;;84.87;47.60;;;;;;;;;;6180227;28;20324;-84
2023/04/09 00:08:22;;;;;;;88.47;46.37;;;;;;;;;;6195632;28;20117;-84
2023/04/09 00:11:22;;;;;;;78.40;42.60;;;;;;;;;;6182858;28;20102;-84
2023/04/09 00:14:23;;;;;;;72.93;41.67;;;;;;;;;;6201964;28;20023;-84
2023/04/09 00:17:23;;;;;;;63.57;35.40;;;;;;;;;;6188172;28;20015;-85
2023/04/09 00:20:23;;;;;;;70.17;36.90;;;;;;;;;;6188527;28;20026;-84
2023/04/09 00:23:23;;;;;;;60.97;35.00;;;;;;;;;;6192555;28;20059;-82
2023/04/09 00:26:24;;;;;;;66.32;35.83;;;;;;;;;;6193026;28;20054;-83
2023/04/09 00:29:25;;;;;;;75.20;35.90;;;;;;;;;;6202765;28;20015;-84
2023/04/09 00:32:25;;;;;;;54.43;30.40;;;;;;;;;;6190606;28;20023;-84
2023/04/09 00:35:25;;;;;;;85.80;31.00;;;;;;;;;;6193755;28;20085;-84
2023/04/09 00:38:25;;;;;;;60.63;30.90;;;;;;;;;;6189486;28;20023;-84
2023/04/09 00:41:26;;;;;;;60.67;29.30;;;;;;;;;;6182054;28;20019;-86
2023/04/09 00:44:26;;;;;;;99.67;37.10;;;;;;;;;;6188780;28;20049;-84
2023/04/09 00:47:27;;;;;;;63.00;30.20;;;;;;;;;;6202955;28;20031;-85
2023/04/09 00:50:27;;;;;;;90.40;29.03;;;;;;;;;;6188658;28;20027;-85
2023/04/09 00:53:27;;;;;;;146.90;34.77;;;;;;;;;;6190024;28;20047;-87
2023/04/09 00:56:28;;;;;;;66.70;31.67;;;;;;;;;;6186220;28;20058;-85
2023/04/09 00:59:30;;;;;;;92.13;42.87;;;;;;;;;;6180568;28;20468;-85
2023/04/09 01:02:30;;;;;;;76.85;43.92;;;;;;;;;;6178096;28;20057;-82
2023/04/09 01:05:36;;;;;;;82.63;37.43;;;;;;;;;;6180574;28;20086;-86
2023/04/09 01:08:55;;;;;;;83.65;35.15;;;;;;;;;;6196843;28;20027;-85
2023/04/09 01:12:13;;;;;;;99.15;41.22;;;;;;;;;;6199796;28;20035;-86
2023/04/09 01:15:17;;;;;;;77.07;38.33;;;;;;;;;;6188658;28;20022;-85
2023/04/09 01:18:26;;;;;;;106.70;38.72;;;;;;;;;;6190460;28;20422;-85
2023/04/09 01:21:30;;;;;;;80.85;35.33;;;;;;;;;;6188405;28;20011;-85
2023/04/09 01:24:45;;;;;;;73.07;32.60;;;;;;;;;;6188422;28;20034;-82
2023/04/09 01:27:53;;;;;;;84.18;36.90;;;;;;;;;;6184619;28;20046;-85
2023/04/09 01:30:57;;;;;;;75.85;35.92;;;;;;;;;;6190719;28;20101;-86
2023/04/09 01:33:59;;;;;;;74.15;34.88;;;;;;;;;;6192281;28;20037;-85
2023/04/09 01:37:01;;;;;;;79.57;39.08;;;;;;;;;;6190761;28;20019;-84
2023/04/09 01:40:01;;;;;;;67.07;31.30;;;;;;;;;;6189603;28;20014;-86
2023/04/09 01:43:02;;;;;;;60.60;28.63;;;;;;;;;;6195117;28;20042;-85
2023/04/09 01:46:03;;;;;;;65.00;30.20;;;;;;;;;;6199862;28;20019;-83
2023/04/09 01:49:03;;;;;;;50.07;27.10;;;;;;;;;;6194160;28;20011;-82
2023/04/09 01:52:04;;;;;;;59.33;26.73;;;;;;;;;;6197132;28;20003;-84
2023/04/09 01:55:04;;;;;;;49.13;25.97;;;;;;;;;;6194988;28;20019;-85
2023/04/09 01:58:04;;;;;;;46.60;24.47;;;;;;;;;;6192692;28;20014;-86
2023/04/09 02:01:08;;;;;;;51.63;27.77;;;;;;;;;;6190573;28;20034;-86
2023/04/09 02:04:10;;;;;;;62.08;27.25;;;;;;;;;;6190844;28;20062;-84
2023/04/09 02:07:22;;;;;;;77.10;39.00;;;;;;;;;;6188136;28;20511;-85
2023/04/09 02:10:25;;;;;;;83.53;41.67;;;;;;;;;;6189886;28;20103;-85
2023/04/09 02:13:26;;;;;;;73.25;41.92;;;;;;;;;;6207843;28;20054;-85
2023/04/09 02:16:26;;;;;;;83.37;42.30;;;;;;;;;;6195341;28;20073;-84
2023/04/09 02:19:43;;;;;;;82.77;43.87;;;;;;;;;;6198085;28;20014;-86
2023/04/09 02:22:44;;;;;;;61.75;34.72;;;;;;;;;;6197844;28;20034;-85
2023/04/09 02:25:44;;;;;;;56.00;31.83;;;;;;;;;;6201103;28;20011;-85
2023/04/09 02:28:44;;;;;;;50.30;25.63;;;;;;;;;;6198419;28;20023;-86
2023/04/09 02:31:45;;;;;;;49.55;26.77;;;;;;;;;;6198341;28;20006;-84
2023/04/09 02:34:45;;;;;;;54.60;29.40;;;;;;;;;;6198872;28;20070;-86
2023/04/09 02:37:45;;;;;;;49.13;27.00;;;;;;;;;;6194059;28;20516;-86
2023/04/09 02:40:45;;;;;;;60.57;29.00;;;;;;;;;;6197072;28;20091;-86
2023/04/09 02:43:45;;;;;;;52.23;27.80;;;;;;;;;;6195824;28;20050;-85
2023/04/09 02:46:46;;;;;;;62.80;31.20;;;;;;;;;;6208503;28;20109;-85
2023/04/09 02:49:46;;;;;;;55.07;28.90;;;;;;;;;;6192820;28;20026;-84
2023/04/09 02:52:47;;;;;;;47.30;26.60;;;;;;;;;;6194249;28;20062;-83
2023/04/09 02:55:47;;;;;;;56.27;31.23;;;;;;;;;;6208453;28;20029;-85
2023/04/09 02:58:50;;;;;;;49.13;27.17;;;;;;;;;;6193176;28;20527;-84
2023/04/09 03:01:51;;;;;;;50.75;29.48;;;;;;;;;;6192784;28;20051;-85
2023/04/09 03:04:51;;;;;;;58.45;28.02;;;;;;;;;;6207199;28;20388;-85
2023/04/09 03:07:53;;;;;;;34.87;20.03;;;;;;;;;;6188977;28;20033;-85
2023/04/09 03:10:53;;;;;;;98.88;33.25;;;;;;;;;;6190998;28;20101;-82
2023/04/09 03:13:53;;;;;;;77.13;32.13;;;;;;;;;;6190544;28;20023;-83
2023/04/09 03:16:53;;;;;;;73.67;28.90;;;;;;;;;;6190039;28;20030;-84
2023/04/09 03:19:53;;;;;;;78.03;28.05;;;;;;;;;;6206028;28;20070;-83
2023/04/09 03:22:54;;;;;;;64.47;30.50;;;;;;;;;;6205642;28;20019;-83
2023/04/09 03:26:01;;;;;;;83.93;41.20;;;;;;;;;;6209056;28;20047;-85
2023/04/09 03:29:02;;;;;;;77.00;40.20;;;;;;;;;;6188705;28;20030;-84
2023/04/09 03:32:02;;;;;;;76.83;34.73;;;;;;;;;;6186981;28;20031;-84
2023/04/09 03:35:02;;;;;;;63.63;32.40;;;;;;;;;;6202509;28;20074;-83
2023/04/09 03:38:02;;;;;;;104.60;43.20;;;;;;;;;;6205311;28;20027;-82
2023/04/09 03:41:03;;;;;;;106.60;46.30;;;;;;;;;;6205240;28;20034;-81
2023/04/09 03:44:03;;;;;;;98.93;43.17;;;;;;;;;;6198855;28;20031;-83
2023/04/09 03:47:03;;;;;;;76.27;35.23;;;;;;;;;;6193271;28;20019;-83
2023/04/09 03:50:03;;;;;;;73.73;33.17;;;;;;;;;;6196642;28;20026;-83
2023/04/09 03:53:04;;;;;;;58.37;27.50;;;;;;;;;;6180907;28;20046;-82
2023/04/09 03:56:04;;;;;;;46.13;23.17;;;;;;;;;;6180004;28;20022;-83
2023/04/09 03:59:05;;;;;;;58.23;28.93;;;;;;;;;;6179485;28;20117;-83
2023/04/09 04:02:05;;;;;;;53.30;28.83;;;;;;;;;;6189958;28;20034;-84
2023/04/09 04:05:05;;;;;;;60.63;28.20;;;;;;;;;;6178557;28;20393;-84
2023/04/09 04:08:06;;;;;;;65.27;31.50;;;;;;;;;;6176271;28;20421;-84
2023/04/09 04:11:06;;;;;;;62.70;33.47;;;;;;;;;;6177297;28;20054;-84
2023/04/09 04:14:06;;;;;;;59.87;28.07;;;;;;;;;;6176661;28;20018;-84
2023/04/09 04:17:06;;;;;;;72.47;33.63;;;;;;;;;;6179053;28;20023;-84
2023/04/09 04:20:07;;;;;;;71.57;33.90;;;;;;;;;;6179039;28;20085;-84
2023/04/09 04:23:07;;;;;;;92.13;44.93;;;;;;;;;;6178399;28;20023;-84
2023/04/09 04:26:11;;;;;;;66.60;31.03;;;;;;;;;;6180086;28;20026;-84
2023/04/09 04:29:11;;;;;;;70.93;32.63;;;;;;;;;;6177743;28;20038;-83
2023/04/09 04:32:11;;;;;;;65.07;33.47;;;;;;;;;;6178807;28;20023;-84
2023/04/09 04:35:11;;;;;;;91.13;41.30;;;;;;;;;;6180439;28;20095;-84
2023/04/09 04:38:12;;;;;;;78.20;37.40;;;;;;;;;;6178018;28;20015;-83
2023/04/09 04:41:13;;;;;;;69.43;33.97;;;;;;;;;;6175852;28;20041;-79
2023/04/09 04:44:14;;;;;;;;;;;;;;;;;;6178782;28;20093;-83
2023/04/09 04:47:15;;;;;;;103.03;40.90;;;;;;;;;;6179570;28;19998;-84
2023/04/09 04:50:15;;;;;;;74.63;35.00;;;;;;;;;;6180410;28;20027;-83
2023/04/09 04:53:15;;;;;;;68.63;32.27;;;;;;;;;;6179612;28;20059;-84
2023/04/09 04:56:15;;;;;;;58.03;29.23;;;;;;;;;;6178525;28;20050;-84
2023/04/09 04:59:15;;;;;;;54.70;26.00;;;;;;;;;;6179401;28;20027;-83
2023/04/09 05:02:16;;;;;;;45.83;23.57;;;;;;;;;;6177657;28;20539;-83
2023/04/09 05:05:16;;;;;;;47.55;24.13;;;;;;;;;;6176079;28;20489;-84
2023/04/09 05:08:16;;;;;;;42.63;21.15;;;;;;;;;;6167472;28;20059;-83
2023/04/09 05:11:16;;;;;;;49.03;26.93;;;;;;;;;;6170290;28;20082;-83
2023/04/09 05:14:20;;;;;;;34.10;17.17;;;;;;;;;;6172588;28;20007;-81
2023/04/09 05:17:23;;;;;;;52.30;25.58;;;;;;;;;;6184410;28;20038;-82
2023/04/09 05:20:23;;;;;;;54.53;25.83;;;;;;;;;;6177708;28;20033;-83
2023/04/09 05:23:23;;;;;;;51.67;27.47;;;;;;;;;;6177664;28;20050;-84
2023/04/09 05:26:24;;;;;;;58.38;31.85;;;;;;;;;;6178534;28;20018;-84
2023/04/09 05:29:24;;;;;;;61.63;34.13;;;;;;;;;;6177744;28;20059;-84
2023/04/09 05:32:24;;;;;;;59.97;32.90;;;;;;;;;;6179653;28;20023;-83
2023/04/09 05:35:24;;;;;;;59.23;33.27;;;;;;;;;;6178389;28;20029;-84
2023/04/09 05:38:25;;;;;;;56.08;27.80;;;;;;;;;;6178508;28;20023;-85
2023/04/09 05:41:25;;;;;;;66.47;36.43;;;;;;;;;;6193439;28;20038;-85
2023/04/09 05:44:25;;;;;;;85.90;45.90;;;;;;;;;;6175535;28;20030;-80
2023/04/09 05:47:25;;;;;;;65.60;35.27;;;;;;;;;;6176406;28;20053;-82
2023/04/09 05:50:26;;;;;;;61.33;35.25;;;;;;;;;;6198958;28;20033;-81
2023/04/09 05:53:26;;;;;;;72.40;40.23;;;;;;;;;;6183786;28;20019;-83
2023/04/09 05:56:26;;;;;;;75.47;40.70;;;;;;;;;;6183060;28;20085;-84
2023/04/09 05:59:27;;;;;;;68.73;40.13;;;;;;;;;;6181421;28;20030;-84
2023/04/09 06:02:27;;;;;;;69.03;37.50;;;;;;;;;;6182498;28;20054;-84
2023/04/09 06:05:27;;;;;;;78.60;44.90;;;;;;;;;;6179175;28;20019;-85
2023/04/09 06:08:27;;;;;;;75.20;40.88;;;;;;;;;;6174832;28;20027;-85
2023/04/09 06:11:27;;;;;;;74.10;39.40;;;;;;;;;;6176993;28;20446;-84
2023/04/09 06:14:28;;;;;;;79.97;43.67;;;;;;;;;;6178586;28;20097;-85
2023/04/09 06:17:28;;;;;;;71.15;43.15;;;;;;;;;;6190920;28;20093;-85
2023/04/09 06:20:29;;;;;;;79.37;43.80;;;;;;;;;;6173976;28;20058;-84
2023/04/09 06:23:29;;;;;;;77.43;48.20;;;;;;;;;;6174679;28;20026;-85
2023/04/09 06:26:30;;;;;;;75.03;45.13;;;;;;;;;;6174302;28;20031;-84
2023/04/09 06:29:30;;;;;;;76.83;44.37;;;;;;;;;;6180716;28;20125;-85
2023/04/09 06:32:30;;;;;;;89.77;51.73;;;;;;;;;;6176525;28;20015;-82
2023/04/09 06:35:30;;;;;;;84.07;48.07;;;;;;;;;;6176909;28;20027;-84
2023/04/09 06:38:32;;;;;;;76.90;47.27;;;;;;;;;;6177332;28;20015;-84
2023/04/09 06:41:32;;;;;;;93.00;53.03;;;;;;;;;;6188875;28;20034;-82
2023/04/09 06:44:33;;;;;;;100.30;60.27;;;;;;;;;;6173816;28;20023;-84
2023/04/09 06:47:34;;;;;;;100.63;66.40;;;;;;;;;;6175267;28;20453;-85
2023/04/09 06:50:35;;;;;;;111.40;63.42;;;;;;;;;;6192899;28;20030;-85
2023/04/09 06:53:35;;;;;;;109.63;62.63;;;;;;;;;;6176855;28;20026;-84
2023/04/09 06:56:35;;;;;;;143.90;78.73;;;;;;;;;;6174033;28;20055;-85
2023/04/09 06:59:35;;;;;;;113.20;63.57;;;;;;;;;;6172693;28;20117;-86
2023/04/09 07:02:36;;;;;;;110.07;62.37;;;;;;;;;;6180429;28;20039;-86
2023/04/09 07:05:36;;;;;;;110.23;63.37;;;;;;;;;;6180138;28;20031;-85
2023/04/09 07:08:36;;;;;;;128.87;73.23;;;;;;;;;;6173582;28;20031;-85
2023/04/09 07:11:36;;;;;;;107.87;61.23;;;;;;;;;;6181568;28;20085;-85
2023/04/09 07:14:36;;;;;;;108.15;60.50;;;;;;;;;;6188037;28;20007;-81
2023/04/09 07:17:37;;;;;;;99.60;56.57;;;;;;;;;;6205856;28;20026;-85
2023/04/09 07:20:37;;;;;;;111.57;60.73;;;;;;;;;;6206017;28;20027;-86
2023/04/09 07:23:37;;;;;;;101.27;59.13;;;;;;;;;;6197953;28;20057;-86
2023/04/09 07:26:38;;;;;;;117.87;61.90;;;;;;;;;;6204233;28;20050;-86
2023/04/09 07:29:38;;;;;;;111.37;65.67;;;;;;;;;;6200742;28;20014;-87
2023/04/09 07:32:38;;;;;;;95.67;59.83;;;;;;;;;;6203141;28;20003;-87
2023/04/09 07:35:38;;;;;;;77.00;46.57;;;;;;;;;;6196910;22;20053;-87
2023/04/09 07:38:39;;;;;;;73.07;42.90;;;;;;;;;;6166314;28;20114;-87
2023/04/09 07:41:39;;;;;;;84.70;48.13;;;;;;;;;;6169697;28;20560;-87
2023/04/09 07:44:39;;;;;;;83.63;47.30;;;;;;;;;;6174747;28;20117;-87
2023/04/09 07:47:40;;;;;;;79.63;49.03;;;;;;;;;;6170888;28;20397;-88
2023/04/09 07:50:48;;;;;;;74.78;44.90;;;;;;;;;;6177025;28;20058;-88
2023/04/09 07:53:49;;;;;;;75.72;45.72;;;;;;;;;;6192413;28;20015;-87
2023/04/09 07:56:49;;;;;;;67.90;42.43;;;;;;;;;;6174345;28;20461;-87
2023/04/09 07:59:50;;;;;;;67.20;40.27;;;;;;;;;;6178351;28;20113;-88
2023/04/09 08:02:51;;;;;;;74.05;39.47;;;;;;;;;;6176956;28;20038;-88
2023/04/09 08:05:51;;;;;;;61.13;37.23;;;;;;;;;;6194213;28;20448;-88
2023/04/09 08:08:52;;;;;;;58.90;35.93;;;;;;;;;;6175748;28;20042;-88
2023/04/09 08:11:52;;;;;;;63.63;35.13;;;;;;;;;;6169908;28;20136;-88
2023/04/09 08:14:52;;;;;;;60.97;34.87;;;;;;;;;;6181255;28;20027;-88
2023/04/09 08:17:53;;;;;;;62.33;36.80;;;;;;;;;;6157169;28;20032;-88
2023/04/09 08:20:53;;;;;;;71.73;42.43;;;;;;;;;;6163089;28;20037;-88
2023/04/09 08:24:00;;;;;;;63.03;37.30;;;;;;;;;;6172445;28;20062;-88
2023/04/09 08:27:00;;;;;;;60.03;34.75;;;;;;;;;;6157900;28;20059;-89
2023/04/09 08:30:01;;;;;;;60.10;36.40;;;;;;;;;;6178503;28;20051;-88
2023/04/09 08:33:01;;;;;;;60.60;37.57;;;;;;;;;;6170009;28;20023;-88
2023/04/09 08:36:01;;;;;;;59.90;36.20;;;;;;;;;;6160827;28;20498;-87
2023/04/09 08:39:02;;;;;;;61.07;37.10;;;;;;;;;;6171601;28;20031;-88
2023/04/09 08:42:05;;;;;;;62.73;38.77;;;;;;;;;;6182308;28;20023;-88
2023/04/09 08:45:07;;;;;;;61.88;37.30;;;;;;;;;;6168400;28;20090;-88
2023/04/09 08:48:09;;;;;;;62.20;38.70;;;;;;;;;;6170511;28;20055;-88
2023/04/09 08:51:17;;;;;;;74.20;42.85;;;;;;;;;;6160768;28;20034;-87
2023/04/09 08:54:18;;;;;;;63.75;39.40;;;;;;;;;;6185397;28;20033;-88
2023/04/09 08:57:19;;;;;;;70.35;44.38;;;;;;;;;;6188173;28;20033;-88
2023/04/09 09:00:19;;;;;;;71.43;42.27;;;;;;;;;;6187673;28;20015;-88
2023/04/09 09:03:20;;;;;;;66.83;37.70;;;;;;;;;;6160065;28;20023;-87
2023/04/09 09:06:22;;;;;;;94.17;53.67;;;;;;;;;;6182393;28;20061;-88
2023/04/09 09:09:23;;;;;;;84.72;51.65;;;;;;;;;;6182479;28;20027;-88
2023/04/09 09:12:30;;;;;;;62.25;41.20;;;;;;;;;;6179650;28;20040;-89
2023/04/09 09:15:30;;;;;;;62.70;39.63;;;;;;;;;;6195256;28;20027;-88
2023/04/09 09:18:57;;;;;;;62.13;39.17;;;;;;;;;;6184922;28;20050;-89
2023/04/09 09:21:58;;;;;;;69.35;42.10;;;;;;;;;;6189391;28;20034;-87
2023/04/09 09:24:58;;;;;;;60.92;37.97;;;;;;;;;;6192354;23;20034;-78
2023/04/09 09:28:08;;;;;;;58.70;32.83;;;;;;;;;;6165486;28;20434;-82
2023/04/09 09:31:10;;;;;;;60.13;36.53;;;;;;;;;;6180886;28;20038;-82
2023/04/09 09:34:10;;;;;;;59.53;36.90;;;;;;;;;;6184905;28;20027;-82
2023/04/09 09:37:26;;;;;;;59.67;34.37;;;;;;;;;;6169256;28;20019;-82
2023/04/09 09:40:27;;;;;;;63.35;37.80;;;;;;;;;;6166248;28;20026;-79
2023/04/09 09:43:39;;;;;;;66.13;39.00;;;;;;;;;;6159664;28;20026;-81
2023/04/09 09:46:41;;;;;;;63.25;36.58;;;;;;;;;;6162894;28;20111;-80
2023/04/09 09:49:42;;;;;;;58.47;35.72;;;;;;;;;;6165975;28;20034;-81
2023/04/09 09:52:44;;;;;;;60.13;35.90;;;;;;;;;;6162531;28;20023;-80
2023/04/09 09:55:47;;;;;;;57.67;33.80;;;;;;;;;;6166890;28;20027;-81
2023/04/09 09:58:51;;;;;;;62.22;35.03;;;;;;;;;;6161581;28;20105;-81
2023/04/09 10:02:00;;;;;;;48.65;32.67;;;;;;;;;;6166989;28;20413;-80
2023/04/09 10:05:00;;;;;;;58.80;37.63;;;;;;;;;;6166446;28;20054;-80
2023/04/09 10:08:01;;;;;;;54.30;32.83;;;;;;;;;;6167071;28;20023;-80
2023/04/09 10:11:03;;;;;;;62.22;39.28;;;;;;;;;;6167958;28;20019;-80
2023/04/09 10:14:04;;;;;;;57.65;36.30;;;;;;;;;;6167133;28;20023;-80
2023/04/09 10:17:04;;;;;;;54.63;33.77;;;;;;;;;;6164810;28;20138;-80
2023/04/09 10:20:34;;;;;;;56.10;33.43;;;;;;;;;;6168475;28;20319;-80
2023/04/09 10:23:44;;;;;;;52.38;32.67;;;;;;;;;;6132237;28;20047;-80
2023/04/09 10:26:44;;;;;;;50.85;31.58;;;;;;;;;;6166475;28;20082;-80
2023/04/09 10:29:45;;;;;;;;;;;;;;;;;;6166968;28;20031;-80
2023/04/09 10:32:46;;;;;;;56.88;33.40;;;;;;;;;;6167771;28;19919;-80
2023/04/09 10:35:47;;;;;;;56.00;34.87;;;;;;;;;;6170608;28;20023;-79
2023/04/09 10:38:49;;;;;;;51.35;34.15;;;;;;;;;;6171975;28;20114;-80
2023/04/09 10:41:50;;;;;;;50.58;31.40;;;;;;;;;;6168592;28;20073;-80
2023/04/09 10:45:08;;;;;;;50.13;31.77;;;;;;;;;;6173008;28;20122;-80
2023/04/09 10:48:12;;;;;;;51.05;32.20;;;;;;;;;;6172897;28;20473;-80
2023/04/09 10:51:17;;;;;;;48.35;31.38;;;;;;;;;;6170022;28;20022;-80
2023/04/09 10:54:33;;;;;;;43.75;28.98;;;;;;;;;;6173323;28;20066;-80
2023/04/09 10:57:33;;;;;;;49.17;30.60;;;;;;;;;;6173126;28;20027;-80
2023/04/09 11:00:41;;;;;;;48.23;30.47;;;;;;;;;;6173820;28;20234;-79
2023/04/09 11:03:43;;;;;;;46.42;28.13;;;;;;;;;;6174677;28;20030;-79
2023/04/09 11:06:44;;;;;;;44.28;29.02;;;;;;;;;;6172745;28;20393;-79
2023/04/09 11:09:46;;;;;;;42.35;28.52;;;;;;;;;;6173287;28;20030;-79
2023/04/09 11:12:49;;;;;;;41.45;27.13;;;;;;;;;;6171780;28;20031;-79
2023/04/09 11:15:49;;;;;;;46.78;28.02;;;;;;;;;;6172089;28;20101;-79
2023/04/09 11:18:50;;;;;;;44.77;27.27;;;;;;;;;;6173147;28;20030;-77
2023/04/09 11:21:50;;;;;;;49.77;25.37;;;;;;;;;;6173018;28;20037;-78
2023/04/09 11:24:52;;;;;;;35.13;24.67;;;;;;;;;;6172910;28;20030;-78
2023/04/09 11:27:53;;;;;;;36.58;23.13;;;;;;;;;;6172849;28;20047;-79
2023/04/09 11:30:53;;;;;;;35.77;22.73;;;;;;;;;;6168673;28;20141;-79
2023/04/09 11:33:59;;;;;;;33.50;22.60;;;;;;;;;;6167544;28;20031;-77
2023/04/09 11:37:03;;;;;;;32.65;22.02;;;;;;;;;;6174333;28;20418;-79
2023/04/09 11:40:04;;;;;;;32.40;22.30;;;;;;;;;;6172065;28;20049;-79
2023/04/09 11:43:06;;;;;;;33.37;20.97;;;;;;;;;;6172350;28;20066;-79
2023/04/09 11:46:07;;;;;;;37.78;25.35;;;;;;;;;;6171270;28;20031;-79
2023/04/09 11:49:08;;;;;;;35.80;22.07;;;;;;;;;;6169839;28;20484;-79
2023/04/09 11:52:09;;;;;;;;;;;;;;;;;;6170935;28;20034;-79
2023/04/09 11:55:09;;;;;;;35.97;23.47;;;;;;;;;;6170312;28;20353;-79
2023/04/09 11:58:10;;;;;;;36.97;26.87;;;;;;;;;;6168301;28;20015;-77
2023/04/09 12:01:10;;;;;;;41.70;25.10;;;;;;;;;;6170530;28;20504;-79
2023/04/09 12:04:18;;;;;;;35.60;22.13;;;;;;;;;;6173239;28;20560;-79
2023/04/09 12:07:18;;;;;;;34.72;22.95;;;;;;;;;;6170166;28;20034;-79
2023/04/09 12:10:18;;;;;;;38.55;23.77;;;;;;;;;;6164263;28;20082;-79
2023/04/09 12:13:18;;;;;;;35.17;23.53;;;;;;;;;;6191921;28;20031;-80
2023/04/09 12:16:20;;;;;;;40.23;24.60;;;;;;;;;;6174363;28;20720;-80
2023/04/09 12:19:21;;;;;;;;;;;;;;;;;;6174271;28;20033;-80
2023/04/09 12:22:21;;;;;;;31.48;19.50;;;;;;;;;;6171257;28;20253;-80
2023/04/09 12:25:22;;;;;;;31.27;18.87;;;;;;;;;;6168713;28;20047;-80
2023/04/09 12:28:22;;;;;;;23.63;17.33;;;;;;;;;;6182513;28;20113;-80
2023/04/09 12:31:22;;;;;;;25.73;17.23;;;;;;;;;;6180587;28;20461;-80
2023/04/09 12:34:22;;;;;;;27.83;19.43;;;;;;;;;;6168880;28;20102;-79
2023/04/09 12:37:23;;;;;;;28.10;18.73;;;;;;;;;;6170335;28;20014;-81
2023/04/09 12:40:25;;;;;;;27.60;20.17;;;;;;;;;;6184228;28;20564;-81
2023/04/09 12:43:25;;;;;;;25.73;16.90;;;;;;;;;;6169285;28;20564;-80
2023/04/09 12:46:27;;;;;;;27.87;18.60;;;;;;;;;;6167781;28;20030;-80
2023/04/09 12:49:27;;;;;;;27.77;19.13;;;;;;;;;;6166959;28;20497;-80
2023/04/09 12:52:27;;;;;;;31.17;19.37;;;;;;;;;;6170023;28;20019;-79
2023/04/09 12:55:28;;;;;;;27.55;17.98;;;;;;;;;;6186210;28;20101;-80
2023/04/09 12:58:28;;;;;;;31.80;19.13;;;;;;;;;;6173694;28;20054;-77
2023/04/09 13:01:28;;;;;;;28.33;18.00;;;;;;;;;;6173343;28;20500;-78
2023/04/09 13:04:28;;;;;;;30.88;18.98;;;;;;;;;;6170627;28;20029;-79
2023/04/09 13:07:29;;;;;;;29.67;19.40;;;;;;;;;;6170370;28;20038;-80
2023/04/09 13:10:30;;;;;;;26.03;16.00;;;;;;;;;;6171462;28;20031;-79
2023/04/09 13:13:30;;;;;;;20.13;13.20;;;;;;;;;;6171539;28;20038;-79
2023/04/09 13:16:31;;;;;;;19.70;13.48;;;;;;;;;;6171118;28;20018;-79
2023/04/09 13:19:32;;;;;;;24.75;16.40;;;;;;;;;;6170985;28;20031;-79
2023/04/09 13:22:32;;;;;;;26.10;16.73;;;;;;;;;;6175934;28;20031;-79
2023/04/09 13:25:33;;;;;;;26.17;16.70;;;;;;;;;;6173952;28;20298;-79
2023/04/09 13:28:33;;;;;;;27.47;17.13;;;;;;;;;;6173540;28;20023;-80
2023/04/09 13:31:36;;;;;;;19.13;13.60;;;;;;;;;;6169768;28;20445;-79
2023/04/09 13:34:37;;;;;;;24.38;16.73;;;;;;;;;;6183368;28;20101;-79
2023/04/09 13:37:37;;;;;;;29.88;18.60;;;;;;;;;;6170221;28;20557;-79
2023/04/09 13:40:37;;;;;;;49.20;25.90;;;;;;;;;;6169838;28;20027;-79
2023/04/09 13:43:38;;;;;;;57.60;31.57;;;;;;;;;;6170239;28;20046;-79
2023/04/09 13:46:39;;;;;;;27.52;19.15;;;;;;;;;;6170386;28;20027;-79
2023/04/09 13:49:40;;;;;;;24.15;16.38;;;;;;;;;;6176327;28;20081;-79
2023/04/09 13:52:40;;;;;;;23.50;16.57;;;;;;;;;;6166669;28;20370;-79
2023/04/09 13:55:40;;;;;;;26.73;17.87;;;;;;;;;;6168686;28;20027;-79
2023/04/09 13:58:42;;;;;;;29.33;18.07;;;;;;;;;;6171953;28;20019;-79
2023/04/09 14:01:42;;;;;;;27.23;18.80;;;;;;;;;;6170212;28;20505;-79
2023/04/09 14:04:42;;;;;;;29.53;19.23;;;;;;;;;;6169980;28;20027;-80
2023/04/09 14:07:42;;;;;;;27.93;19.00;;;;;;;;;;6163881;28;20134;-81
2023/04/09 14:10:43;;;;;;;33.23;21.70;;;;;;;;;;6173676;28;20105;-84
2023/04/09 14:13:45;;;;;;;36.27;24.50;;;;;;;;;;6169047;28;20027;-83
2023/04/09 14:16:47;;;;;;;38.92;25.65;;;;;;;;;;6170876;28;20470;-81
2023/04/09 14:19:47;;;;;;;32.65;22.95;;;;;;;;;;6174088;28;20658;-81
2023/04/09 14:22:48;;;;;;;31.55;21.15;;;;;;;;;;6172754;28;20038;-80
2023/04/09 14:25:48;;;;;;;30.13;19.85;;;;;;;;;;6174727;28;20050;-80
2023/04/09 14:28:49;;;;;;;28.07;18.03;;;;;;;;;;6167202;28;20037;-79
2023/04/09 14:31:50;;;;;;;27.30;16.75;;;;;;;;;;6171087;28;20484;-79
2023/04/09 14:34:50;;;;;;;24.97;16.83;;;;;;;;;;6178003;28;20054;-79
2023/04/09 14:37:51;;;;;;;26.03;18.33;;;;;;;;;;6173550;28;20023;-79
2023/04/09 14:40:51;;;;;;;24.53;16.80;;;;;;;;;;6173846;28;20081;-80
2023/04/09 14:43:51;;;;;;;26.73;17.17;;;;;;;;;;6169946;28;20031;-80
2023/04/09 14:46:53;;;;;;;22.93;15.87;;;;;;;;;;6173760;28;20023;-81
2023/04/09 14:49:53;;;;;;;21.33;13.63;;;;;;;;;;6193355;28;20549;-80
2023/04/09 14:52:53;;;;;;;21.90;14.65;;;;;;;;;;6181098;28;20037;-81
2023/04/09 14:55:54;;;;;;;22.33;14.00;;;;;;;;;;6169034;28;20031;-79
2023/04/09 14:58:54;;;;;;;22.63;14.23;;;;;;;;;;6196453;28;20029;-79
2023/04/09 15:01:54;;;;;;;24.60;14.82;;;;;;;;;;6176893;28;20117;-79
2023/04/09 15:04:54;;;;;;;21.10;13.83;;;;;;;;;;6173178;28;20030;-79
2023/04/09 15:07:56;;;;;;;23.98;14.27;;;;;;;;;;6176014;28;20098;-78
2023/04/09 15:10:56;;;;;;;23.83;11.98;;;;;;;;;;6172729;28;20031;-80
2023/04/09 15:13:56;;;;;;;21.13;13.60;;;;;;;;;;6173743;28;20489;-78
2023/04/09 15:16:56;;;;;;;20.87;13.67;;;;;;;;;;6187808;28;20026;-79
2023/04/09 15:19:57;;;;;;;23.60;15.30;;;;;;;;;;6172671;28;20023;-79
2023/04/09 15:22:57;;;;;;;28.27;17.53;;;;;;;;;;6166985;28;20019;-79
2023/04/09 15:25:57;;;;;;;29.53;17.27;;;;;;;;;;6168033;28;20055;-78
2023/04/09 15:29:02;;;;;;;30.87;19.00;;;;;;;;;;6167204;28;20034;-78
2023/04/09 15:32:03;;;;;;;28.77;18.15;;;;;;;;;;6164925;28;20382;-79
2023/04/09 15:35:03;;;;;;;27.97;18.50;;;;;;;;;;6182773;28;20077;-78
2023/04/09 15:38:03;;;;;;;30.17;17.67;;;;;;;;;;6170742;28;20491;-76
2023/04/09 15:41:04;;;;;;;29.10;17.80;;;;;;;;;;6178958;28;20117;-79
2023/04/09 15:44:04;;;;;;;28.63;18.93;;;;;;;;;;6167956;28;20030;-78
2023/04/09 15:47:04;;;;;;;26.10;17.53;;;;;;;;;;6168919;28;20527;-78
2023/04/09 15:50:05;;;;;;;26.93;17.90;;;;;;;;;;6170649;28;20494;-77
2023/04/09 15:53:05;;;;;;;23.13;15.77;;;;;;;;;;6169551;28;20027;-77
2023/04/09 15:56:06;;;;;;;24.67;16.35;;;;;;;;;;6165114;28;20400;-78
2023/04/09 15:59:07;;;;;;;27.13;18.63;;;;;;;;;;6167168;28;20335;-77
2023/04/09 16:02:07;;;;;;;26.90;19.37;;;;;;;;;;6163777;28;20034;-78
2023/04/09 16:05:07;;;;;;;27.87;18.30;;;;;;;;;;6167416;28;20262;-78
2023/04/09 16:08:08;;;;;;;27.87;18.20;;;;;;;;;;6168602;28;20548;-77
2023/04/09 16:11:09;;;;;;;27.30;18.90;;;;;;;;;;6181125;28;20505;-77
2023/04/09 16:14:09;;;;;;;31.85;20.15;;;;;;;;;;6168070;28;20545;-77
2023/04/09 16:17:09;;;;;;;29.57;19.03;;;;;;;;;;6169358;28;20015;-78
2023/04/09 16:20:10;;;;;;;39.13;25.40;;;;;;;;;;6169494;28;20373;-78
2023/04/09 16:23:10;;;;;;;40.23;26.77;;;;;;;;;;6169059;28;20023;-78
2023/04/09 16:26:11;;;;;;;43.97;28.07;;;;;;;;;;6168328;28;20105;-78
2023/04/09 16:29:11;;;;;;;44.27;27.83;;;;;;;;;;6168570;28;20027;-78
2023/04/09 16:32:12;;;;;;;49.40;27.47;;;;;;;;;;6165494;28;20125;-78
2023/04/09 16:35:13;;;;;;;48.85;29.70;;;;;;;;;;6165384;28;20045;-78
2023/04/09 16:38:13;;;;;;;45.23;30.50;;;;;;;;;;6164921;28;20137;-78
2023/04/09 16:41:13;;;;;;;48.70;33.53;;;;;;;;;;6168572;28;20018;-78
2023/04/09 16:44:14;;;;;;;44.27;31.43;;;;;;;;;;6167522;28;20549;-79
2023/04/09 16:47:14;;;;;;;36.53;23.00;;;;;;;;;;6173956;28;20509;-79
2023/04/09 16:50:14;;;;;;;34.43;21.60;;;;;;;;;;6168776;28;20058;-78
2023/04/09 16:53:16;;;;;;;35.47;22.97;;;;;;;;;;6168438;28;20443;-78
2023/04/09 16:56:16;;;;;;;34.90;21.08;;;;;;;;;;6167835;28;20055;-78
2023/04/09 16:59:17;;;;;;;37.70;21.47;;;;;;;;;;6167403;28;21361;-78
2023/04/09 17:02:21;;;;;;;36.60;22.75;;;;;;;;;;6168335;28;20137;-78
2023/04/09 17:05:21;;;;;;;34.95;20.85;;;;;;;;;;6179429;28;20089;-77
2023/04/09 17:08:23;;;;;;;34.20;22.00;;;;;;;;;;6169623;28;20457;-78
2023/04/09 17:11:23;;;;;;;34.45;20.02;;;;;;;;;;6168408;28;20022;-78
2023/04/09 17:14:23;;;;;;;33.70;20.93;;;;;;;;;;6165250;28;20023;-78
2023/04/09 17:17:23;;;;;;;36.27;22.23;;;;;;;;;;6169431;28;20456;-78
2023/04/09 17:20:24;;;;;;;32.93;20.50;;;;;;;;;;6173110;28;20026;-78
2023/04/09 17:23:25;;;;;;;36.23;22.27;;;;;;;;;;6167694;28;20023;-78
2023/04/09 17:26:25;;;;;;;41.20;23.80;;;;;;;;;;6162524;28;20746;-78
2023/04/09 17:29:25;;;;;;;39.90;25.47;;;;;;;;;;6169009;28;20031;-78
2023/04/09 17:32:26;;;;;;;41.47;22.13;;;;;;;;;;6167659;28;20031;-78
2023/04/09 17:35:26;;;;;;;44.10;25.60;;;;;;;;;;6168866;28;20426;-80
2023/04/09 17:38:28;;;;;;;43.97;25.10;;;;;;;;;;6168886;28;20066;-79